Résultats événements

25/06/2017 Triathlon du Pays de Brive 2017-Triathlon M




Sortie natation

Arrivée vélo

Arrivée
Categorie:

Clt Temps de course Nom Dos Cat Temps sur l'intervalle Clt int. Gain
1 02:09:43 Répar'Vélo 258 RELH 00:38:52 6 0
2 02:10:21 PROUZET Ludovic 213 MV1 00:39:12 8 0
3 02:12:22 COULAUD Edouard 138 MS2 00:38:43 5 0
4 02:13:43 BARBORIER Hugues 190 MS2 00:39:58 9 0
5 02:14:27 THOUZEAU Pierrick 179 MS3 00:38:57 7 2
6 02:16:52 POUPARD Gaylor 218 MS2 00:38:02 3 2
7 02:17:14 ZENANI Normann 223 MS2 00:41:54 14 -1
8 02:17:31 LAGIER Laurent 227 MV2 00:43:07 18 -3
9 02:21:20 POURTEYRON Olivier 181 MV1 00:41:34 13 1
10 02:21:46 BOURREL Maxime 130 MS2 00:40:23 10 4
11 02:22:13 LEROY Sébastien 186 MV2 00:40:56 11 2
12 02:23:33 MOUNAL Julien 185 MS4 00:43:13 19 0
13 02:25:05 POULLAIN Matthieu 215 MS2 00:46:04 32 -4
14 02:25:50 BABORIER Charley 222 MS2 00:45:56 31 -3
15 02:26:31 DELOUBES Nicolas 234 MS3 00:00:00 1 93
16 02:26:40 GENETAY Jean philippe 165 MV1 00:41:33 12 6
17 02:27:22 LAVIALLE Mathieu 205 MS2 00:43:46 21 2
18 02:27:23 OUSTRY Nicolas 167 MS4 00:43:46 20 2
19 02:27:39 SENAC Alexandre 207 MV1 00:18:38 2 63
20 02:28:35 ALTAZIN Thomas 163 FS3 00:45:02 24 -2
21 02:29:21 BADIN Bertrand 191 MV1 00:46:39 38 -5
22 02:30:57 St Yrieix Triathlon 257 RELM 00:47:57 44 -5
23 02:31:07 JUDET Arnaud 151 MV2 00:44:52 23 0
24 02:32:54 SALAUN LACOSTE Jerome 184 MS3 00:42:06 15 8
25 02:33:20 ROME Guillaume 180 MS2 00:45:41 28 -1
26 02:33:34 PLANE Eugenie 216 FS2 00:42:46 17 5
27 02:33:36 DUCOURET Geoffroy 203 MV1 00:44:27 22 1
28 02:35:06 RONGIERE Christophe 210 MV2 00:47:25 42 -3
29 02:35:16 KESTENS Tim 217 MV2 00:51:11 58 -8
30 02:35:34 LAGRAVE Michel 182 MV3 00:46:36 37 -4
31 02:36:47 DURAND Arnaud 194 MV1 00:47:31 43 -2
32 02:36:54 FOURGNAUD Remy 145 MS2 00:45:48 29 1
33 02:37:05 HONORE Stephane 196 MS4 00:48:00 45 -6
34 02:38:59 BARRIER PAIVA Vincent 159 MS3 00:49:41 53 -4
35 02:38:59 LECONTE Samuel 157 MV2 00:56:40 86 -20
36 02:39:37 Lau touristas 246 RELH 00:38:38 4 23
37 02:40:05 MEYER Laurent 200 MV2 00:45:37 27 2
38 02:40:37 Les retardataires 255 RELM 00:45:07 26 6
39 02:40:52 PORCHER Thierry 208 MV2 00:46:29 36 -1
40 02:42:06 POUPIN Jean-charles 183 MS3 00:45:06 25 9
41 02:42:31 CHIRICO Alberto 229 MV2 00:47:01 40 2
42 02:43:05 DELAGE Cyril 231 MS4 00:49:45 54 -5
43 02:43:14 Les Saillacois 250 RELM 00:46:25 35 4
44 02:43:25 FEUILLARD Christophe 135 MV3 00:48:04 46 -3
45 02:43:33 PENAUD Stéphane 144 MS3 00:51:21 60 -10
46 02:45:15 Hamida Tean Caisse d'épargne 254 RELM 00:53:06 65 -12
47 02:45:24 LAPEYRIE Pierre 126 MV2 00:48:59 50 -1
48 02:45:24 GUBERT Guillaume 171 MS2 00:46:14 33 6
49 02:45:30 MURZIN Benjamin 212 MS3 00:42:35 16 17
50 02:46:06 LES GENERATIONS 248 RELH 00:45:49 30 7
51 02:47:47 GARRELOU Lionel 221 MS3 00:47:08 41 7
52 02:48:19 BESTE Benjamin 140 MS3 00:52:25 63 -7
53 02:48:47 BANIOL Christophe 188 MV2 00:48:40 48 3
54 02:48:57 LAFARGE Michel 225 MV5 00:52:04 61 -6
55 02:49:16 DESSET Charles 237 MS4 00:54:38 75 -15
56 02:49:16 FRANCOIS Pierre-luc 155 MS3 00:46:44 39 9
57 02:49:21 babacool 247 RELM 00:53:54 71 -15
58 02:50:59 triléovet 249 RELM 00:53:55 72 -8
59 02:51:25 BUCCELLARI Jean michel 164 MV2 00:49:12 51 5
60 02:51:53 PEYRATOUT Augustin 141 MS3 00:48:49 49 8
61 02:52:26 RENARD Fabien 176 MV1 00:49:21 52 6
62 02:52:52 BOURDIER Sylvain 152 MS4 00:50:45 57 1
63 02:53:22 BRIGNON Laure 220 FS2 00:55:06 79 -11
64 02:53:45 Les Improbables 251 RELH 00:53:39 69 -9
65 02:54:15 VILLARD Sabine 211 FV1 00:52:32 64 -5
66 02:54:17 LACOSTE Pascale 202 FV1 00:50:07 56 4
67 02:56:02 LAROCHE Vincent 198 MS4 00:56:55 88 -14
68 02:56:12 ALLARD Brian 175 MS3 00:58:26 91 -17
69 02:56:13 FRAISSE Laurent 158 MV2 00:54:12 74 -7
70 02:56:57 CREIGNOU Gael 170 MS4 00:55:03 78 -9
71 02:57:46 PRADEAU Didier 154 MV3 00:54:40 76 -2
72 02:57:53 CONSTANT Thierry 127 MV1 00:52:12 62 0
73 02:59:25 CARON Romain 195 MS3 00:53:48 70 -2
74 03:00:43 GRASSET Marc-olivier 149 MV2 00:48:36 47 15
75 03:00:59 BERTHY Elise 201 FS2 00:51:21 59 9
76 03:02:06 MAILLER Christophe 204 MV3 00:55:47 82 0
77 03:03:21 FOURNIER Pascal 197 MV4 00:56:09 83 2
78 03:03:27 ZERYOUH Hassane 177 MV3 00:46:19 34 17
79 03:03:46 AUBIN Raphael 226 MV2 00:55:47 81 2
80 03:03:58 FAURIE Bertrand 139 MV1 00:56:22 84 0
81 03:04:36 ARCHAMBAULT Sebastien 178 MS4 00:57:51 89 -4
82 03:04:58 BRISSAUD Yannick 150 MV3 00:59:06 93 -8
83 03:05:19 CAUMONT Christian 136 MV4 00:58:24 90 -5
84 03:06:28 DUVERNEUIL Arnaud 129 MS3 01:00:11 98 -9
85 03:08:26 WAVRESKY Michel 209 MV5 00:56:46 87 2
86 03:08:40 PEQUIGNOT Eric 147 MS4 00:56:34 85 2
87 03:09:45 CROS Sébastien 132 MV1 00:59:50 97 -1
88 03:10:01 MOTTET Dimitri 137 MV1 00:54:52 77 5
89 03:11:12 les boulets 253 RELM 00:53:17 67 7
90 03:11:12 MOUSNIER Geraud 214 MV1 00:55:27 80 4
91 03:12:30 SURRET Gerard 166 MV4 01:06:39 107 -18
92 03:12:32 MARTINEZ Frederic 168 MV1 00:53:10 66 10
93 03:13:26 RUFFEZ Manuel 133 MV2 00:58:36 92 -2
94 03:14:11 DESLANDRES Piérick 172 MS4 00:53:58 73 9
95 03:15:07 SANTONI Sébastien 236 MS3 01:05:25 106 -10
96 03:16:49 FIAT Olivier 142 MV3 01:04:27 104 -6
97 03:18:09 OBERON Fabien 148 MS3 00:59:31 96 1
98 03:19:26 1687 252 RELH 00:49:54 55 11
99 03:19:35 RAUX Julien 134 MV1 01:01:04 100 -2
100 03:19:40 GHESQUIERE Martial 156 MS3 01:00:49 99 -1
101 03:19:47 DETTORI-CAMPUS Lionel 143 MS3 01:04:42 105 -9
102 03:22:17 LECLERE Emmanuel 131 MV2 01:03:13 103 -1
103 03:23:01 GRIMAULT Sylvie 174 FV2 01:01:40 102 1
104 03:24:20 HAUCHEMAILLE Benoît 173 MS4 01:01:37 101 1
105 03:25:04 BARRAUD Mark 160 MS3 00:53:38 68 5
106 03:29:49 BUSSIERES Etienne 162 MS3 01:07:05 108 0
107 03:31:10 BARON Thierry 206 MV5 01:12:08 111 -7
108 03:32:15 BARRET Stéphane 187 MV2 01:07:33 109 -1
109 03:32:28 FAMTOM Romane 233 MS1 00:59:13 94 4
110 03:32:29 URRUTY Maxime 232 MS1 00:59:13 95 2
111 03:43:38 DONZEAU Philippe 199 MV5 01:11:12 110 0


Restez connectés à vos performances